createdAt,value
2023-03-10T00:00:00.496Z,6.08
2023-03-10T00:10:02.705Z,6.17
2023-03-10T00:20:11.551Z,6.45
2023-03-10T00:30:14.230Z,6.22
2023-03-10T00:40:16.563Z,6.24
2023-03-10T00:50:18.689Z,6.26
2023-03-10T01:00:23.393Z,6.43
2023-03-10T01:10:25.452Z,6.97
2023-03-10T01:20:27.550Z,6.26
2023-03-10T01:30:29.653Z,6.12
2023-03-10T01:40:32.418Z,5.91
2023-03-10T01:50:34.610Z,6.58
2023-03-10T02:00:40.492Z,6.15
2023-03-10T02:10:42.665Z,7.30
2023-03-10T02:20:56.702Z,6.82
2023-03-10T02:30:59.192Z,6.93
2023-03-10T02:41:02.004Z,6.73
2023-03-10T02:51:20.016Z,6.58
2023-03-10T03:01:22.544Z,6.81
2023-03-10T03:11:25.251Z,6.94
2023-03-10T03:21:28.734Z,7.11
2023-03-10T03:31:31.335Z,7.02
2023-03-10T03:41:43.622Z,6.69
2023-03-10T03:51:46.710Z,6.98
2023-03-10T04:01:49.164Z,6.89
2023-03-10T04:11:51.394Z,7.13
2023-03-10T04:21:55.585Z,7.39
2023-03-10T04:32:05.344Z,7.15
2023-03-10T04:42:11.361Z,7.16
2023-03-10T04:52:14.307Z,6.94
2023-03-10T05:02:18.313Z,7.01
2023-03-10T05:12:20.638Z,7.22
2023-03-10T05:22:22.817Z,7.42
2023-03-10T05:32:25.042Z,6.68
2023-03-10T05:42:28.178Z,6.78
2023-03-10T05:52:30.447Z,6.55
2023-03-10T06:02:32.953Z,6.08
2023-03-10T06:12:35.198Z,6.41
2023-03-10T06:22:37.314Z,6.89
2023-03-10T06:32:39.442Z,7.00
2023-03-10T06:42:41.910Z,6.94
2023-03-10T06:52:45.311Z,6.38
2023-03-10T07:02:47.410Z,6.47
2023-03-10T07:12:54.880Z,6.45
2023-03-10T07:22:56.926Z,6.71
2023-03-10T07:32:58.979Z,6.71
2023-03-10T07:43:01.392Z,6.53
2023-03-10T07:53:04.302Z,6.85
2023-03-10T08:03:06.387Z,6.62
2023-03-10T08:13:08.526Z,7.25
2023-03-10T08:23:10.614Z,7.27
2023-03-10T08:33:12.744Z,7.81
2023-03-10T08:43:14.879Z,7.47
2023-03-10T08:53:16.946Z,7.36
2023-03-10T09:03:19.309Z,7.83
2023-03-10T09:13:21.748Z,7.70
2023-03-10T09:23:23.811Z,8.22
2023-03-10T09:33:25.884Z,7.73
2023-03-10T09:43:30.886Z,7.22
2023-03-10T09:53:38.975Z,7.65
2023-03-10T10:03:52.551Z,8.90
2023-03-10T10:14:26.230Z,8.74
2023-03-10T10:24:30.882Z,8.52
2023-03-10T10:34:33.950Z,8.38
2023-03-10T10:44:41.124Z,8.40
2023-03-10T10:54:43.687Z,9.02
2023-03-10T11:04:46.809Z,9.50
2023-03-10T11:15:01.799Z,9.55
2023-03-10T11:25:27.573Z,9.92
2023-03-10T11:35:43.846Z,10.26
2023-03-10T11:45:54.320Z,10.24
2023-03-10T11:55:57.580Z,9.83
2023-03-10T12:06:00.736Z,9.36
2023-03-10T12:16:04.155Z,8.29
2023-03-10T12:26:06.373Z,8.08
2023-03-10T12:36:15.929Z,7.28
2023-03-10T12:46:39.739Z,7.85
2023-03-10T12:56:52.482Z,7.70
2023-03-10T13:06:56.837Z,7.55
2023-03-10T13:17:00.669Z,7.76
2023-03-10T13:27:13.795Z,7.68
2023-03-10T13:37:15.962Z,7.42
2023-03-10T13:47:20.410Z,7.96
2023-03-10T13:57:26.729Z,7.08
2023-03-10T14:07:36.974Z,7.65
2023-03-10T14:17:39.653Z,6.98
2023-03-10T14:27:44.778Z,7.20
2023-03-10T14:37:50.777Z,6.69
2023-03-10T14:47:54.644Z,7.53
2023-03-10T14:57:59.644Z,7.04
2023-03-10T15:08:04.209Z,5.30
2023-03-10T15:18:09.158Z,5.61
2023-03-10T15:28:12.657Z,5.17
2023-03-10T15:38:15.372Z,4.61
2023-03-10T15:48:17.906Z,4.79
2023-03-10T15:58:20.120Z,4.54
2023-03-10T16:08:22.282Z,4.81
2023-03-10T16:18:24.790Z,4.10
2023-03-10T16:28:26.853Z,4.50
2023-03-10T16:38:29.324Z,4.53
2023-03-10T16:48:31.625Z,3.85
2023-03-10T16:58:34.049Z,1.69
2023-03-10T17:08:37.471Z,1.67
2023-03-10T17:18:39.532Z,-0.01
2023-03-10T17:28:42.885Z,-0.12
2023-03-10T17:38:45.640Z,-1.37
2023-03-10T17:48:47.994Z,-1.04
2023-03-10T17:58:52.562Z,-1.19
2023-03-10T18:08:56.445Z,-1.76
2023-03-10T18:18:59.564Z,-1.70
2023-03-10T18:29:01.620Z,-0.97
2023-03-10T18:39:14.123Z,-1.64
2023-03-10T18:49:16.718Z,-1.78
2023-03-10T18:59:19.984Z,-2.33
2023-03-10T19:09:24.497Z,-2.08
2023-03-10T19:19:28.462Z,-1.76
2023-03-10T19:29:34.764Z,-1.77
2023-03-10T19:39:37.155Z,-1.43
2023-03-10T19:49:39.659Z,-1.45
2023-03-10T19:59:42.308Z,-1.89
2023-03-10T20:09:46.057Z,-1.47
2023-03-10T20:19:48.267Z,-1.67
2023-03-10T20:29:50.415Z,-1.38
2023-03-10T20:39:52.559Z,-1.09
2023-03-10T20:49:55.707Z,-1.27
2023-03-10T20:59:58.212Z,-1.02
2023-03-10T21:10:00.386Z,-1.55
2023-03-10T21:20:07.905Z,-0.84
2023-03-10T21:30:12.775Z,-0.81
2023-03-10T21:40:19.644Z,-0.63
2023-03-10T21:50:22.370Z,-1.24
2023-03-10T22:00:24.714Z,-1.19
2023-03-10T22:10:27.354Z,-1.14
2023-03-10T22:20:29.694Z,-0.32
2023-03-10T22:30:32.093Z,-0.72
2023-03-10T22:40:34.398Z,-0.50
2023-03-10T22:50:39.312Z,-1.15
2023-03-10T23:00:42.564Z,-1.40
2023-03-10T23:10:44.772Z,-1.50
2023-03-10T23:20:49.032Z,-0.97
2023-03-10T23:30:51.448Z,-1.73
2023-03-10T23:40:55.324Z,-1.61
2023-03-10T23:50:57.762Z,-1.79
